首页
METAR-TAF:

METAR-TAF

机场 :

奧爾托國際機場

拉巴斯, 玻利维亚

纬度: 16-31S, 经度: 068-11W, 海拔: 4058米

当前天气观测

该预报发布于19分钟前的18:00 UTC
风速12节,风向西转西北,在西北转西北之间变化
温度 12°C
湿度 47%
气压 1040 hPa
能见度10公里或以上
散云层高于1700英尺
少量云层高于2000英尺, 积雨云.
散云层高于7000英尺

METAR: SLLP 061800Z 29012KT 260V330 9999 SCT017 FEW020CB SCT070 12/01 Q1040

时间: 14:19 (18:19 UTC)

预报

该预报发布于2小时和19分钟前的16:00 UTC
预报有效从06日的 18点(UTC)到 07日的 18点(UTC)
风速14节,风向西北
能见度10公里或以上
散云层高于1500英尺
少量云层高于1700英尺, 积雨云.
多云层高于7000英尺
成为
从 06日的 23点(UTC)到 07日的 01点(UTC)
风速5节,风向东转东北
成为
从 06日的 04点(UTC)到 06日的 06点(UTC)
能見度: 3000
少量云层高于300英尺
散云层高于1200英尺
附近有雾
成为
从 06日的 12点(UTC)到 06日的 14点(UTC)
能见度10公里或以上
散云层高于1500英尺
成为
从 06日的 13点(UTC)到 06日的 15点(UTC)
风速12节,风向西

TAF: SLLP 061600Z 0618/0718 32014KT 9999 SCT015 FEW017CB BKN070 TX13/0620Z TNM01/0710Z BECMG 0623/0701 07005KT BECMG 0604/0606 3000E VCFG FEW003 SCT012 BECMG 0612/0614 9999 NSW SCT015 BECMG 0613/0615 28012KT

超过4000个机场的气象观测和天气预报(METAR&TAF报告)。

可查询的气象台以黄色和红色小点在地图上表示。

将鼠标移到小点上方,可查看气象台名称。

然后点击查看天气观测和预报。

如需切换地图:点击带黑十字的绿色按钮放大地图;点击带横线的绿色按钮缩小地图;或者点击绿色箭头查看邻近地区的地图。


METAR-TAF: